sensor_id;sensor_type;location;lat;lon;timestamp;temperature;humidity
69679;DHT22;56915;52.046;4.854;2022-10-04T00:02:17;11.90;99.90
69679;DHT22;56915;52.046;4.854;2022-10-04T00:07:29;11.90;99.90
69679;DHT22;56915;52.046;4.854;2022-10-04T00:09:58;11.90;99.90
69679;DHT22;56915;52.046;4.854;2022-10-04T00:12:34;11.90;99.90
69679;DHT22;56915;52.046;4.854;2022-10-04T00:26:00;12.10;99.90
69679;DHT22;56915;52.046;4.854;2022-10-04T00:28:45;12.10;99.90
69679;DHT22;56915;52.046;4.854;2022-10-04T00:31:13;12.10;99.90
69679;DHT22;56915;52.046;4.854;2022-10-04T00:33:45;12.10;99.90
69679;DHT22;56915;52.046;4.854;2022-10-04T00:49:46;12.00;99.90
69679;DHT22;56915;52.046;4.854;2022-10-04T00:52:24;11.90;99.90
69679;DHT22;56915;52.046;4.854;2022-10-04T00:55:01;11.90;99.90
69679;DHT22;56915;52.046;4.854;2022-10-04T00:57:38;11.80;99.90
69679;DHT22;56915;52.046;4.854;2022-10-04T01:00:13;11.70;99.90
69679;DHT22;56915;52.046;4.854;2022-10-04T01:05:20;11.60;99.90
69679;DHT22;56915;52.046;4.854;2022-10-04T01:08:07;11.60;99.90
69679;DHT22;56915;52.046;4.854;2022-10-04T01:10:55;11.50;99.90
69679;DHT22;56915;52.046;4.854;2022-10-04T01:13:29;11.40;99.90
69679;DHT22;56915;52.046;4.854;2022-10-04T01:16:02;11.40;99.90
69679;DHT22;56915;52.046;4.854;2022-10-04T01:18:32;11.30;99.90
69679;DHT22;56915;52.046;4.854;2022-10-04T01:21:19;11.20;99.90
69679;DHT22;56915;52.046;4.854;2022-10-04T01:23:51;11.10;99.90
69679;DHT22;56915;52.046;4.854;2022-10-04T01:31:39;10.80;99.90
69679;DHT22;56915;52.046;4.854;2022-10-04T01:34:07;10.80;99.90
69679;DHT22;56915;52.046;4.854;2022-10-04T01:36:35;10.70;99.90
69679;DHT22;56915;52.046;4.854;2022-10-04T01:39:03;10.70;99.90
69679;DHT22;56915;52.046;4.854;2022-10-04T01:44:09;10.50;99.90
69679;DHT22;56915;52.046;4.854;2022-10-04T01:46:38;10.40;99.90
69679;DHT22;56915;52.046;4.854;2022-10-04T01:49:14;10.40;99.90
69679;DHT22;56915;52.046;4.854;2022-10-04T01:51:56;10.30;99.90
69679;DHT22;56915;52.046;4.854;2022-10-04T01:54:32;10.30;99.90
69679;DHT22;56915;52.046;4.854;2022-10-04T01:57:17;10.20;99.90
69679;DHT22;56915;52.046;4.854;2022-10-04T02:02:43;10.10;99.90
69679;DHT22;56915;52.046;4.854;2022-10-04T02:05:13;10.10;99.90
69679;DHT22;56915;52.046;4.854;2022-10-04T02:07:41;10.10;99.90
69679;DHT22;56915;52.046;4.854;2022-10-04T02:10:14;10.00;99.90
69679;DHT22;56915;52.046;4.854;2022-10-04T02:12:45;10.00;99.90
69679;DHT22;56915;52.046;4.854;2022-10-04T02:15:13;10.00;99.90
69679;DHT22;56915;52.046;4.854;2022-10-04T02:17:41;9.90;99.90
69679;DHT22;56915;52.046;4.854;2022-10-04T02:20:17;9.90;99.90
69679;DHT22;56915;52.046;4.854;2022-10-04T02:22:53;9.90;99.90
69679;DHT22;56915;52.046;4.854;2022-10-04T02:25:21;9.80;99.90
69679;DHT22;56915;52.046;4.854;2022-10-04T02:27:51;9.80;99.90
69679;DHT22;56915;52.046;4.854;2022-10-04T02:30:19;9.80;99.90
69679;DHT22;56915;52.046;4.854;2022-10-04T02:32:47;9.80;99.90
69679;DHT22;56915;52.046;4.854;2022-10-04T02:35:34;9.80;99.90
69679;DHT22;56915;52.046;4.854;2022-10-04T02:38:18;9.80;99.90
69679;DHT22;56915;52.046;4.854;2022-10-04T02:41:11;9.80;99.90
69679;DHT22;56915;52.046;4.854;2022-10-04T02:43:50;9.80;99.90
69679;DHT22;56915;52.046;4.854;2022-10-04T02:47:04;9.80;99.90
69679;DHT22;56915;52.046;4.854;2022-10-04T02:49:35;9.70;99.90
69679;DHT22;56915;52.046;4.854;2022-10-04T02:52:10;9.70;99.90
69679;DHT22;56915;52.046;4.854;2022-10-04T02:54:52;9.60;99.90
69679;DHT22;56915;52.046;4.854;2022-10-04T02:57:22;9.60;99.90
69679;DHT22;56915;52.046;4.854;2022-10-04T02:59:50;9.60;99.90
69679;DHT22;56915;52.046;4.854;2022-10-04T03:02:28;9.50;99.90
69679;DHT22;56915;52.046;4.854;2022-10-04T03:05:16;9.50;99.90
69679;DHT22;56915;52.046;4.854;2022-10-04T03:07:43;9.50;99.90
69679;DHT22;56915;52.046;4.854;2022-10-04T03:10:12;9.50;99.90
69679;DHT22;56915;52.046;4.854;2022-10-04T03:12:40;9.40;99.90
69679;DHT22;56915;52.046;4.854;2022-10-04T03:15:11;9.50;99.90
69679;DHT22;56915;52.046;4.854;2022-10-04T03:17:42;9.40;99.90
69679;DHT22;56915;52.046;4.854;2022-10-04T03:20:11;9.40;99.90
69679;DHT22;56915;52.046;4.854;2022-10-04T03:22:44;9.40;99.90
69679;DHT22;56915;52.046;4.854;2022-10-04T03:25:16;9.40;99.90
69679;DHT22;56915;52.046;4.854;2022-10-04T03:27:43;9.40;99.90
69679;DHT22;56915;52.046;4.854;2022-10-04T03:30:15;9.40;99.90
69679;DHT22;56915;52.046;4.854;2022-10-04T03:32:42;9.40;99.90
69679;DHT22;56915;52.046;4.854;2022-10-04T03:35:28;9.30;99.90
69679;DHT22;56915;52.046;4.854;2022-10-04T03:37:57;9.30;99.90
69679;DHT22;56915;52.046;4.854;2022-10-04T03:40:27;9.30;99.90
69679;DHT22;56915;52.046;4.854;2022-10-04T03:42:55;9.30;99.90
69679;DHT22;56915;52.046;4.854;2022-10-04T03:45:23;9.30;99.90
69679;DHT22;56915;52.046;4.854;2022-10-04T03:47:53;9.30;99.90
69679;DHT22;56915;52.046;4.854;2022-10-04T03:50:28;9.30;99.90
69679;DHT22;56915;52.046;4.854;2022-10-04T03:53:02;9.30;99.90
69679;DHT22;56915;52.046;4.854;2022-10-04T03:55:34;9.30;99.90
69679;DHT22;56915;52.046;4.854;2022-10-04T03:58:04;9.30;99.90
69679;DHT22;56915;52.046;4.854;2022-10-04T04:00:36;9.30;99.90
69679;DHT22;56915;52.046;4.854;2022-10-04T04:03:06;9.30;99.90
69679;DHT22;56915;52.046;4.854;2022-10-04T04:05:40;9.40;99.90
69679;DHT22;56915;52.046;4.854;2022-10-04T04:08:39;9.40;99.90
69679;DHT22;56915;52.046;4.854;2022-10-04T04:11:05;9.40;99.90
69679;DHT22;56915;52.046;4.854;2022-10-04T04:13:50;9.30;99.90
69679;DHT22;56915;52.046;4.854;2022-10-04T04:16:21;9.30;99.90
69679;DHT22;56915;52.046;4.854;2022-10-04T04:18:53;9.30;99.90
69679;DHT22;56915;52.046;4.854;2022-10-04T04:21:21;9.20;99.90
69679;DHT22;56915;52.046;4.854;2022-10-04T04:23:57;9.20;99.90
69679;DHT22;56915;52.046;4.854;2022-10-04T04:26:44;9.10;99.90
69679;DHT22;56915;52.046;4.854;2022-10-04T04:32:22;9.10;99.90
69679;DHT22;56915;52.046;4.854;2022-10-04T04:35:01;9.00;99.90
69679;DHT22;56915;52.046;4.854;2022-10-04T04:37:37;9.00;99.90
69679;DHT22;56915;52.046;4.854;2022-10-04T04:40:18;8.90;99.90
69679;DHT22;56915;52.046;4.854;2022-10-04T04:42:47;8.90;99.90
69679;DHT22;56915;52.046;4.854;2022-10-04T04:45:17;8.90;99.90
69679;DHT22;56915;52.046;4.854;2022-10-04T04:47:49;8.90;99.90
69679;DHT22;56915;52.046;4.854;2022-10-04T04:50:24;8.90;99.90
69679;DHT22;56915;52.046;4.854;2022-10-04T04:52:58;8.90;99.90
69679;DHT22;56915;52.046;4.854;2022-10-04T04:55:36;8.90;99.90
69679;DHT22;56915;52.046;4.854;2022-10-04T05:01:02;8.90;99.90
69679;DHT22;56915;52.046;4.854;2022-10-04T05:03:30;8.90;99.90
69679;DHT22;56915;52.046;4.854;2022-10-04T05:05:59;8.90;99.90
69679;DHT22;56915;52.046;4.854;2022-10-04T05:08:30;8.90;99.90
69679;DHT22;56915;52.046;4.854;2022-10-04T05:13:51;8.90;99.90
69679;DHT22;56915;52.046;4.854;2022-10-04T05:16:22;8.90;99.90
69679;DHT22;56915;52.046;4.854;2022-10-04T05:18:56;8.90;99.90
69679;DHT22;56915;52.046;4.854;2022-10-04T05:21:29;8.90;99.90
69679;DHT22;56915;52.046;4.854;2022-10-04T05:24:06;8.80;99.90
69679;DHT22;56915;52.046;4.854;2022-10-04T05:26:34;8.80;99.90
69679;DHT22;56915;52.046;4.854;2022-10-04T05:29:09;8.70;99.90
69679;DHT22;56915;52.046;4.854;2022-10-04T05:34:41;8.60;99.90
69679;DHT22;56915;52.046;4.854;2022-10-04T05:42:50;8.50;99.90
69679;DHT22;56915;52.046;4.854;2022-10-04T05:45:20;8.50;99.90
69679;DHT22;56915;52.046;4.854;2022-10-04T05:47:51;8.40;99.90
69679;DHT22;56915;52.046;4.854;2022-10-04T05:50:26;8.50;99.90
69679;DHT22;56915;52.046;4.854;2022-10-04T05:53:29;8.50;99.90
69679;DHT22;56915;52.046;4.854;2022-10-04T06:05:13;8.60;99.90
69679;DHT22;56915;52.046;4.854;2022-10-04T06:07:57;8.60;99.90
69679;DHT22;56915;52.046;4.854;2022-10-04T06:19:11;8.80;99.90
69679;DHT22;56915;52.046;4.854;2022-10-04T06:24:40;8.90;99.90
69679;DHT22;56915;52.046;4.854;2022-10-04T06:29:38;8.90;99.90
69679;DHT22;56915;52.046;4.854;2022-10-04T06:37:40;9.00;99.90
69679;DHT22;56915;52.046;4.854;2022-10-04T07:02:42;9.90;99.90
69679;DHT22;56915;52.046;4.854;2022-10-04T07:05:29;10.00;99.90
69679;DHT22;56915;52.046;4.854;2022-10-04T07:08:09;10.10;99.90
69679;DHT22;56915;52.046;4.854;2022-10-04T07:13:19;10.50;99.90
69679;DHT22;56915;52.046;4.854;2022-10-04T07:18:56;11.00;99.90
69679;DHT22;56915;52.046;4.854;2022-10-04T07:21:32;11.30;99.90
69679;DHT22;56915;52.046;4.854;2022-10-04T07:24:01;11.50;99.90
69679;DHT22;56915;52.046;4.854;2022-10-04T07:26:44;11.60;99.90
69679;DHT22;56915;52.046;4.854;2022-10-04T07:29:18;11.70;99.90
69679;DHT22;56915;52.046;4.854;2022-10-04T07:32:36;11.90;99.90
69679;DHT22;56915;52.046;4.854;2022-10-04T07:34:40;12.00;99.90
69679;DHT22;56915;52.046;4.854;2022-10-04T07:37:10;12.10;99.90
69679;DHT22;56915;52.046;4.854;2022-10-04T07:39:50;12.20;99.90
69679;DHT22;56915;52.046;4.854;2022-10-04T07:42:30;12.30;99.90
69679;DHT22;56915;52.046;4.854;2022-10-04T07:47:43;12.40;99.90
69679;DHT22;56915;52.046;4.854;2022-10-04T07:52:56;12.50;99.90
69679;DHT22;56915;52.046;4.854;2022-10-04T07:55:39;12.60;99.90
69679;DHT22;56915;52.046;4.854;2022-10-04T08:07:00;13.10;99.90
69679;DHT22;56915;52.046;4.854;2022-10-04T08:12:24;13.40;99.90
69679;DHT22;56915;52.046;4.854;2022-10-04T08:15:20;13.50;99.90
69679;DHT22;56915;52.046;4.854;2022-10-04T08:20:55;13.50;99.90
69679;DHT22;56915;52.046;4.854;2022-10-04T08:35:31;14.00;99.90
69679;DHT22;56915;52.046;4.854;2022-10-04T08:38:12;14.20;99.50
69679;DHT22;56915;52.046;4.854;2022-10-04T08:49:07;14.60;97.20
69679;DHT22;56915;52.046;4.854;2022-10-04T08:51:52;14.70;96.60
69679;DHT22;56915;52.046;4.854;2022-10-04T09:17:19;15.00;93.40
69679;DHT22;56915;52.046;4.854;2022-10-04T09:23:14;14.90;93.90
69679;DHT22;56915;52.046;4.854;2022-10-04T09:25:52;15.00;94.40
69679;DHT22;56915;52.046;4.854;2022-10-04T09:31:17;15.10;93.60
69679;DHT22;56915;52.046;4.854;2022-10-04T09:34:17;15.30;93.70
69679;DHT22;56915;52.046;4.854;2022-10-04T09:45:46;15.70;90.50
69679;DHT22;56915;52.046;4.854;2022-10-04T09:54:10;15.90;89.20
69679;DHT22;56915;52.046;4.854;2022-10-04T09:59:57;16.10;87.00
69679;DHT22;56915;52.046;4.854;2022-10-04T10:08:16;16.50;83.40
69679;DHT22;56915;52.046;4.854;2022-10-04T10:20:02;16.70;78.80
69679;DHT22;56915;52.046;4.854;2022-10-04T10:45:28;17.90;67.00
69679;DHT22;56915;52.046;4.854;2022-10-04T10:54:06;17.70;64.60
69679;DHT22;56915;52.046;4.854;2022-10-04T10:57:06;17.60;65.30
69679;DHT22;56915;52.046;4.854;2022-10-04T11:03:18;17.40;66.20
69679;DHT22;56915;52.046;4.854;2022-10-04T11:11:48;18.00;66.80
69679;DHT22;56915;52.046;4.854;2022-10-04T11:17:45;18.90;65.20
69679;DHT22;56915;52.046;4.854;2022-10-04T11:20:29;19.40;62.70
69679;DHT22;56915;52.046;4.854;2022-10-04T11:23:13;19.70;61.70
69679;DHT22;56915;52.046;4.854;2022-10-04T11:28:36;20.10;58.40
69679;DHT22;56915;52.046;4.854;2022-10-04T11:39:56;20.40;56.20
69679;DHT22;56915;52.046;4.854;2022-10-04T11:45:29;20.30;55.40
69679;DHT22;56915;52.046;4.854;2022-10-04T11:48:11;20.10;53.70
69679;DHT22;56915;52.046;4.854;2022-10-04T11:50:56;20.00;53.80
69679;DHT22;56915;52.046;4.854;2022-10-04T12:08:08;19.60;53.10
69679;DHT22;56915;52.046;4.854;2022-10-04T12:10:41;19.60;53.10
69679;DHT22;56915;52.046;4.854;2022-10-04T12:16:37;19.50;53.40
69679;DHT22;56915;52.046;4.854;2022-10-04T12:35:31;18.80;53.80
69679;DHT22;56915;52.046;4.854;2022-10-04T12:38:54;18.90;53.60
69679;DHT22;56915;52.046;4.854;2022-10-04T12:53:05;18.80;51.50
69679;DHT22;56915;52.046;4.854;2022-10-04T13:01:25;19.00;52.50
69679;DHT22;56915;52.046;4.854;2022-10-04T13:06:51;19.00;52.40
69679;DHT22;56915;52.046;4.854;2022-10-04T13:21:08;19.40;51.60
69679;DHT22;56915;52.046;4.854;2022-10-04T13:26:32;19.60;51.80
69679;DHT22;56915;52.046;4.854;2022-10-04T13:31:44;19.70;51.30
69679;DHT22;56915;52.046;4.854;2022-10-04T13:54:22;20.40;50.90
69679;DHT22;56915;52.046;4.854;2022-10-04T13:57:23;20.50;51.40
69679;DHT22;56915;52.046;4.854;2022-10-04T13:59:59;20.60;51.40
69679;DHT22;56915;52.046;4.854;2022-10-04T14:13:57;20.90;50.00
69679;DHT22;56915;52.046;4.854;2022-10-04T14:17:12;20.90;49.70
69679;DHT22;56915;52.046;4.854;2022-10-04T14:28:23;20.70;50.40
69679;DHT22;56915;52.046;4.854;2022-10-04T14:36:47;20.80;50.50
69679;DHT22;56915;52.046;4.854;2022-10-04T15:03:52;20.50;50.60
69679;DHT22;56915;52.046;4.854;2022-10-04T15:06:44;20.50;50.80
69679;DHT22;56915;52.046;4.854;2022-10-04T15:09:29;20.50;50.70
69679;DHT22;56915;52.046;4.854;2022-10-04T15:17:52;20.20;51.40
69679;DHT22;56915;52.046;4.854;2022-10-04T15:20:50;20.20;51.70
69679;DHT22;56915;52.046;4.854;2022-10-04T15:28:50;20.20;52.20
69679;DHT22;56915;52.046;4.854;2022-10-04T15:34:45;20.20;53.00
69679;DHT22;56915;52.046;4.854;2022-10-04T15:39:58;20.40;53.80
69679;DHT22;56915;52.046;4.854;2022-10-04T15:42:33;21.00;53.20
69679;DHT22;56915;52.046;4.854;2022-10-04T15:56:54;20.50;52.00
69679;DHT22;56915;52.046;4.854;2022-10-04T16:05:26;21.70;52.00
69679;DHT22;56915;52.046;4.854;2022-10-04T16:10:58;21.70;49.40
69679;DHT22;56915;52.046;4.854;2022-10-04T16:13:41;21.20;49.80
69679;DHT22;56915;52.046;4.854;2022-10-04T16:19:15;20.00;51.60
69679;DHT22;56915;52.046;4.854;2022-10-04T16:37:25;18.10;58.10
69679;DHT22;56915;52.046;4.854;2022-10-04T16:47:51;17.70;61.30
69679;DHT22;56915;52.046;4.854;2022-10-04T16:56:19;17.40;63.50
69679;DHT22;56915;52.046;4.854;2022-10-04T16:59:10;17.40;64.10
69679;DHT22;56915;52.046;4.854;2022-10-04T17:02:03;17.30;64.80
69679;DHT22;56915;52.046;4.854;2022-10-04T17:10:02;17.10;67.60
69679;DHT22;56915;52.046;4.854;2022-10-04T17:12:42;17.10;67.70
69679;DHT22;56915;52.046;4.854;2022-10-04T17:15:40;17.00;68.30
69679;DHT22;56915;52.046;4.854;2022-10-04T17:18:30;17.00;69.10
69679;DHT22;56915;52.046;4.854;2022-10-04T17:21:27;17.00;69.70
69679;DHT22;56915;52.046;4.854;2022-10-04T17:33:06;16.80;72.30
69679;DHT22;56915;52.046;4.854;2022-10-04T17:47:26;16.70;76.00
69679;DHT22;56915;52.046;4.854;2022-10-04T17:50:20;16.60;76.40
69679;DHT22;56915;52.046;4.854;2022-10-04T17:53:19;16.60;77.60
69679;DHT22;56915;52.046;4.854;2022-10-04T17:56:08;16.60;77.50
69679;DHT22;56915;52.046;4.854;2022-10-04T17:58:52;16.60;77.90
69679;DHT22;56915;52.046;4.854;2022-10-04T18:01:41;16.60;78.50
69679;DHT22;56915;52.046;4.854;2022-10-04T18:04:22;16.60;79.00
69679;DHT22;56915;52.046;4.854;2022-10-04T18:07:13;16.60;79.30
69679;DHT22;56915;52.046;4.854;2022-10-04T18:09:51;16.60;79.70
69679;DHT22;56915;52.046;4.854;2022-10-04T18:17:43;16.60;80.20
69679;DHT22;56915;52.046;4.854;2022-10-04T18:20:30;16.70;80.50
69679;DHT22;56915;52.046;4.854;2022-10-04T18:23:02;16.70;80.70
69679;DHT22;56915;52.046;4.854;2022-10-04T18:25:39;16.70;80.90
69679;DHT22;56915;52.046;4.854;2022-10-04T18:31:00;16.70;81.50
69679;DHT22;56915;52.046;4.854;2022-10-04T18:36:11;16.70;82.10
69679;DHT22;56915;52.046;4.854;2022-10-04T18:38:45;16.70;82.20
69679;DHT22;56915;52.046;4.854;2022-10-04T18:41:18;16.70;82.60
69679;DHT22;56915;52.046;4.854;2022-10-04T18:46:36;16.70;82.60
69679;DHT22;56915;52.046;4.854;2022-10-04T18:49:19;16.70;82.50
69679;DHT22;56915;52.046;4.854;2022-10-04T18:51:52;16.70;82.60
69679;DHT22;56915;52.046;4.854;2022-10-04T18:57:21;16.70;82.90
69679;DHT22;56915;52.046;4.854;2022-10-04T19:10:50;16.60;83.50
69679;DHT22;56915;52.046;4.854;2022-10-04T19:24:31;16.60;83.40
69679;DHT22;56915;52.046;4.854;2022-10-04T19:27:08;16.60;83.30
69679;DHT22;56915;52.046;4.854;2022-10-04T19:32:55;16.60;83.60
69679;DHT22;56915;52.046;4.854;2022-10-04T19:38:24;16.50;83.70
69679;DHT22;56915;52.046;4.854;2022-10-04T19:41:01;16.50;83.60
69679;DHT22;56915;52.046;4.854;2022-10-04T19:46:49;16.50;84.00
69679;DHT22;56915;52.046;4.854;2022-10-04T19:55:03;16.50;84.30
69679;DHT22;56915;52.046;4.854;2022-10-04T19:57:37;16.50;84.50
69679;DHT22;56915;52.046;4.854;2022-10-04T20:00:12;16.50;84.70
69679;DHT22;56915;52.046;4.854;2022-10-04T20:02:40;16.40;85.00
69679;DHT22;56915;52.046;4.854;2022-10-04T20:05:16;16.40;85.40
69679;DHT22;56915;52.046;4.854;2022-10-04T20:07:54;16.40;85.90
69679;DHT22;56915;52.046;4.854;2022-10-04T20:10:23;16.40;86.30
69679;DHT22;56915;52.046;4.854;2022-10-04T20:13:14;16.30;86.60
69679;DHT22;56915;52.046;4.854;2022-10-04T20:15:43;16.30;87.00
69679;DHT22;56915;52.046;4.854;2022-10-04T20:23:46;16.20;88.00
69679;DHT22;56915;52.046;4.854;2022-10-04T20:26:37;16.20;87.90
69679;DHT22;56915;52.046;4.854;2022-10-04T20:32:06;16.20;87.60
69679;DHT22;56915;52.046;4.854;2022-10-04T20:37:05;16.20;88.00
69679;DHT22;56915;52.046;4.854;2022-10-04T20:45:00;16.20;88.50
69679;DHT22;56915;52.046;4.854;2022-10-04T20:47:36;16.20;88.70
69679;DHT22;56915;52.046;4.854;2022-10-04T20:52:45;16.20;88.70
69679;DHT22;56915;52.046;4.854;2022-10-04T20:55:27;16.20;88.30
69679;DHT22;56915;52.046;4.854;2022-10-04T20:58:04;16.20;87.80
69679;DHT22;56915;52.046;4.854;2022-10-04T21:00:53;16.20;87.50
69679;DHT22;56915;52.046;4.854;2022-10-04T21:03:20;16.20;87.20
69679;DHT22;56915;52.046;4.854;2022-10-04T21:06:08;16.20;86.80
69679;DHT22;56915;52.046;4.854;2022-10-04T21:08:36;16.20;86.30
69679;DHT22;56915;52.046;4.854;2022-10-04T21:11:07;16.20;85.90
69679;DHT22;56915;52.046;4.854;2022-10-04T21:16:46;16.20;84.90
69679;DHT22;56915;52.046;4.854;2022-10-04T21:21:59;16.20;84.40
69679;DHT22;56915;52.046;4.854;2022-10-04T21:24:37;16.20;84.20
69679;DHT22;56915;52.046;4.854;2022-10-04T21:27:06;16.20;83.90
69679;DHT22;56915;52.046;4.854;2022-10-04T21:29:37;16.20;83.80
69679;DHT22;56915;52.046;4.854;2022-10-04T21:32:05;16.20;83.60
69679;DHT22;56915;52.046;4.854;2022-10-04T21:34:32;16.20;83.60
69679;DHT22;56915;52.046;4.854;2022-10-04T21:37:19;16.20;83.60
69679;DHT22;56915;52.046;4.854;2022-10-04T21:39:46;16.20;83.60
69679;DHT22;56915;52.046;4.854;2022-10-04T21:42:14;16.10;83.70
69679;DHT22;56915;52.046;4.854;2022-10-04T21:44:41;16.10;83.80
69679;DHT22;56915;52.046;4.854;2022-10-04T21:47:08;16.10;84.00
69679;DHT22;56915;52.046;4.854;2022-10-04T21:49:35;16.20;84.30
69679;DHT22;56915;52.046;4.854;2022-10-04T21:52:02;16.10;84.70
69679;DHT22;56915;52.046;4.854;2022-10-04T21:54:29;16.10;85.10
69679;DHT22;56915;52.046;4.854;2022-10-04T21:56:56;16.10;85.50
69679;DHT22;56915;52.046;4.854;2022-10-04T21:59:23;16.10;86.00
69679;DHT22;56915;52.046;4.854;2022-10-04T22:01:50;16.00;86.50
69679;DHT22;56915;52.046;4.854;2022-10-04T22:04:17;16.00;86.90
69679;DHT22;56915;52.046;4.854;2022-10-04T22:06:44;16.00;87.40
69679;DHT22;56915;52.046;4.854;2022-10-04T22:09:11;16.00;87.90
69679;DHT22;56915;52.046;4.854;2022-10-04T22:11:38;16.00;88.20
69679;DHT22;56915;52.046;4.854;2022-10-04T22:14:05;16.00;88.70
69679;DHT22;56915;52.046;4.854;2022-10-04T22:16:32;16.00;89.10
69679;DHT22;56915;52.046;4.854;2022-10-04T22:18:59;16.00;89.30
69679;DHT22;56915;52.046;4.854;2022-10-04T22:21:26;16.00;89.40
69679;DHT22;56915;52.046;4.854;2022-10-04T22:23:53;16.00;89.50
69679;DHT22;56915;52.046;4.854;2022-10-04T22:26:21;16.00;89.40
69679;DHT22;56915;52.046;4.854;2022-10-04T22:28:50;16.00;89.50
69679;DHT22;56915;52.046;4.854;2022-10-04T22:31:24;16.00;89.60
69679;DHT22;56915;52.046;4.854;2022-10-04T22:33:51;16.00;89.70
69679;DHT22;56915;52.046;4.854;2022-10-04T22:36:20;16.00;89.70
69679;DHT22;56915;52.046;4.854;2022-10-04T22:39:19;16.00;89.80
69679;DHT22;56915;52.046;4.854;2022-10-04T22:44:14;15.90;90.20
69679;DHT22;56915;52.046;4.854;2022-10-04T22:46:44;15.90;90.00
69679;DHT22;56915;52.046;4.854;2022-10-04T22:49:15;15.90;90.00
69679;DHT22;56915;52.046;4.854;2022-10-04T22:51:43;15.90;90.00
69679;DHT22;56915;52.046;4.854;2022-10-04T22:54:18;15.90;90.10
69679;DHT22;56915;52.046;4.854;2022-10-04T22:56:46;15.90;90.00
69679;DHT22;56915;52.046;4.854;2022-10-04T22:59:16;15.90;90.00
69679;DHT22;56915;52.046;4.854;2022-10-04T23:01:45;15.90;90.00
69679;DHT22;56915;52.046;4.854;2022-10-04T23:04:23;15.90;90.10
69679;DHT22;56915;52.046;4.854;2022-10-04T23:06:51;15.90;90.10
69679;DHT22;56915;52.046;4.854;2022-10-04T23:09:19;15.90;90.10
69679;DHT22;56915;52.046;4.854;2022-10-04T23:11:46;15.90;90.10
69679;DHT22;56915;52.046;4.854;2022-10-04T23:14:13;15.90;90.20
69679;DHT22;56915;52.046;4.854;2022-10-04T23:16:40;15.90;90.10
69679;DHT22;56915;52.046;4.854;2022-10-04T23:19:17;15.90;90.10
69679;DHT22;56915;52.046;4.854;2022-10-04T23:21:48;15.90;90.00
69679;DHT22;56915;52.046;4.854;2022-10-04T23:24:21;15.90;90.00
69679;DHT22;56915;52.046;4.854;2022-10-04T23:26:52;15.90;90.30
69679;DHT22;56915;52.046;4.854;2022-10-04T23:29:31;15.90;90.00
69679;DHT22;56915;52.046;4.854;2022-10-04T23:32:06;15.90;90.10
69679;DHT22;56915;52.046;4.854;2022-10-04T23:34:36;15.90;90.10
69679;DHT22;56915;52.046;4.854;2022-10-04T23:37:13;15.90;90.10
69679;DHT22;56915;52.046;4.854;2022-10-04T23:39:42;15.90;90.10
69679;DHT22;56915;52.046;4.854;2022-10-04T23:42:29;15.90;90.00
69679;DHT22;56915;52.046;4.854;2022-10-04T23:44:58;15.90;90.10
69679;DHT22;56915;52.046;4.854;2022-10-04T23:47:34;15.80;90.10
69679;DHT22;56915;52.046;4.854;2022-10-04T23:50:17;15.80;90.20
69679;DHT22;56915;52.046;4.854;2022-10-04T23:52:44;15.80;90.20
69679;DHT22;56915;52.046;4.854;2022-10-04T23:55:22;15.80;90.20
69679;DHT22;56915;52.046;4.854;2022-10-04T23:57:50;15.80;90.20
